Time;durP1;ratioP1;P1;durP2;ratioP2;P2;SDS_P1;SDS_P2;PMS_P1;PMS_P2;Temp;Humidity;BMP_temperature;BMP_pressure;BME280_temperature;BME280_humidity;BME280_pressure;Samples;Min_cycle;Max_cycle;Signal;HPM_P1;HPM_P2
2023/09/01 00:14:54;;;;;;;10.15;9.07;;;15.50;99.90;;;;;;4563523;19;20018;-72
2023/09/01 00:16:30;;;;;;;9.98;8.98;;;15.60;99.90;;;;;;4590796;19;20018;-72
2023/09/01 00:18:05;;;;;;;9.15;8.25;;;15.50;99.90;;;;;;4591640;19;20010;-72
2023/09/01 00:19:40;;;;;;;9.05;8.07;;;15.60;99.90;;;;;;4590589;19;20070;-72
2023/09/01 00:21:16;;;;;;;9.38;8.48;;;15.60;99.90;;;;;;4591965;19;20015;-72
2023/09/01 00:22:50;;;;;;;10.15;9.02;;;15.60;99.90;;;;;;4592143;19;20007;-72
2023/09/01 00:24:24;;;;;;;9.27;8.32;;;15.50;99.90;;;;;;4591483;19;20382;-72
2023/09/01 00:26:03;;;;;;;10.20;8.25;;;15.50;99.90;;;;;;4591921;19;20475;-72
2023/09/01 00:27:37;;;;;;;9.38;8.48;;;15.50;99.90;;;;;;4591889;19;20039;-72
2023/09/01 00:29:11;;;;;;;9.75;8.15;;;15.50;99.90;;;;;;4591777;19;20013;-72
2023/09/01 00:30:54;;;;;;;9.10;8.20;;;15.50;99.90;;;;;;4592092;19;20006;-72
2023/09/01 00:32:28;;;;;;;9.80;8.80;;;15.50;99.90;;;;;;4591776;19;20003;-72
2023/09/01 00:34:03;;;;;;;10.80;8.27;;;15.50;99.90;;;;;;4591908;19;20930;-72
2023/09/01 00:35:39;;;;;;;9.50;8.52;;;15.50;99.90;;;;;;4591358;19;20109;-72
2023/09/01 00:37:12;;;;;;;9.13;8.18;;;15.50;99.90;;;;;;4591589;19;20002;-72
2023/09/01 00:38:47;;;;;;;8.40;7.47;;;15.50;99.90;;;;;;4590289;19;20087;-72
2023/09/01 00:40:21;;;;;;;9.32;7.78;;;15.50;99.90;;;;;;4591526;19;19998;-72
2023/09/01 00:41:56;;;;;;;9.40;7.40;;;15.50;99.90;;;;;;4591825;19;20002;-72
2023/09/01 00:43:30;;;;;;;8.95;7.60;;;15.50;99.90;;;;;;4591571;19;20392;-72
2023/09/01 00:45:05;;;;;;;8.82;7.93;;;15.50;99.90;;;;;;4590908;19;20014;-72
2023/09/01 00:46:39;;;;;;;9.30;8.32;;;15.50;99.90;;;;;;4591753;19;20062;-72
2023/09/01 00:48:13;;;;;;;8.90;7.15;;;15.50;99.90;;;;;;4590380;19;20383;-72
2023/09/01 00:49:51;;;;;;;8.88;7.75;;;15.50;99.90;;;;;;4591191;19;20011;-72
2023/09/01 00:51:26;;;;;;;8.90;7.07;;;15.50;99.90;;;;;;4590150;19;20054;-71
2023/09/01 00:53:02;;;;;;;8.88;7.13;;;15.50;99.90;;;;;;4590171;19;20069;-72
2023/09/01 00:54:38;;;;;;;8.02;7.22;;;15.50;99.90;;;;;;4594254;19;20033;-72
2023/09/01 00:56:12;;;;;;;9.25;7.78;;;15.50;99.90;;;;;;4594154;19;20006;-72
2023/09/01 00:57:46;;;;;;;8.57;7.63;;;15.50;99.90;;;;;;4596197;19;20357;-72
2023/09/01 00:59:22;;;;;;;7.28;6.45;;;15.50;99.90;;;;;;4594690;19;20010;-72
2023/09/01 01:00:58;;;;;;;7.75;6.80;;;15.50;99.90;;;;;;4595825;19;20002;-72
2023/09/01 01:02:32;;;;;;;8.40;7.57;;;15.50;99.90;;;;;;4595889;19;20007;-71
2023/09/01 01:04:08;;;;;;;7.85;7.05;;;15.50;99.90;;;;;;4594505;19;20438;-72
2023/09/01 01:06:09;;;;;;;9.15;7.15;;;15.50;99.90;;;;;;4595453;19;20443;-71
2023/09/01 01:07:58;;;;;;;7.72;6.93;;;15.50;99.90;;;;;;4596014;19;20062;-72
2023/09/01 01:10:28;;;;;;;7.03;6.32;;;15.50;99.90;;;;;;4595806;19;20006;-72
2023/09/01 01:12:35;;;;;;;6.72;6.03;;;15.50;99.90;;;;;;4594601;19;20013;-72
2023/09/01 01:14:16;;;;;;;7.90;6.60;;;15.50;99.90;;;;;;4592853;19;20433;-71
2023/09/01 01:15:50;;;;;;;6.88;6.15;;;15.50;99.90;;;;;;4592523;19;20025;-71
2023/09/01 01:17:24;;;;;;;8.25;6.57;;;15.50;99.90;;;;;;4593541;19;20420;-72
2023/09/01 01:19:02;;;;;;;7.30;6.60;;;15.50;99.90;;;;;;4593515;19;20357;-72
2023/09/01 01:20:40;;;;;;;6.50;5.80;;;15.60;99.90;;;;;;4593582;19;20007;-72
2023/09/01 01:22:14;;;;;;;7.70;6.30;;;15.60;99.90;;;;;;4593210;19;20483;-72
2023/09/01 01:23:51;;;;;;;6.93;6.13;;;15.60;99.90;;;;;;4593226;19;20007;-72
2023/09/01 01:25:24;;;;;;;6.68;5.63;;;15.50;99.90;;;;;;4591616;19;19998;-71
2023/09/01 01:27:00;;;;;;;6.93;5.82;;;15.50;99.90;;;;;;4593123;19;20021;-72
2023/09/01 01:28:36;;;;;;;6.47;5.72;;;15.60;99.90;;;;;;4593193;19;20074;-72
2023/09/01 01:30:14;;;;;;;6.82;6.13;;;15.60;99.90;;;;;;4593297;19;20002;-72
2023/09/01 01:31:48;;;;;;;6.75;5.75;;;15.60;99.90;;;;;;4593006;19;19999;-71
2023/09/01 01:33:41;;;;;;;6.57;5.82;;;15.60;99.90;;;;;;4593308;19;20013;-72
2023/09/01 01:35:35;;;;;;;6.80;6.10;;;15.60;99.90;;;;;;4591675;19;20011;-72
2023/09/01 01:37:30;;;;;;;6.28;5.18;;;15.60;99.90;;;;;;4593265;19;20470;-72
2023/09/01 01:39:07;;;;;;;6.32;4.80;;;15.60;99.90;;;;;;4592951;19;20006;-72
2023/09/01 01:40:43;;;;;;;6.05;5.18;;;15.60;99.90;;;;;;4593152;19;20006;-72
2023/09/01 01:42:18;;;;;;;6.07;5.47;;;15.60;99.90;;;;;;4592826;19;20002;-72
2023/09/01 01:43:54;;;;;;;6.00;5.03;;;15.60;99.90;;;;;;4593021;19;20002;-72
2023/09/01 01:45:29;;;;;;;6.82;5.88;;;15.60;99.90;;;;;;4591264;19;20003;-72
2023/09/01 01:47:03;;;;;;;5.68;4.72;;;15.60;99.90;;;;;;4592688;19;20312;-72
2023/09/01 01:48:38;;;;;;;6.88;5.72;;;15.60;99.90;;;;;;4592776;19;20006;-72
2023/09/01 01:50:12;;;;;;;7.20;5.57;;;15.60;99.90;;;;;;4592616;19;20149;-72
2023/09/01 01:51:46;;;;;;;6.18;5.10;;;15.60;99.90;;;;;;4594866;19;20098;-72
2023/09/01 01:53:22;;;;;;;5.95;4.97;;;15.60;99.90;;;;;;4595098;19;19999;-72
2023/09/01 01:54:56;;;;;;;5.20;4.45;;;15.60;99.90;;;;;;4594154;19;20014;-72
2023/09/01 01:56:30;;;;;;;5.72;4.93;;;15.60;99.90;;;;;;4593188;19;20006;-72
2023/09/01 01:58:05;;;;;;;5.60;4.72;;;15.60;99.90;;;;;;4593404;19;20066;-72
2023/09/01 01:59:39;;;;;;;6.68;5.38;;;15.60;99.90;;;;;;4594365;19;19998;-72
2023/09/01 02:01:14;;;;;;;6.13;5.03;;;15.60;99.90;;;;;;4593302;19;20002;-72
2023/09/01 02:02:49;;;;;;;5.60;4.82;;;15.60;99.90;;;;;;4594304;19;20040;-72
2023/09/01 02:04:22;;;;;;;6.78;5.80;;;15.60;99.90;;;;;;4592815;19;20082;-72
2023/09/01 02:05:56;;;;;;;5.70;4.57;;;15.60;99.90;;;;;;4592919;19;20016;-72
2023/09/01 02:07:31;;;;;;;7.25;5.90;;;15.60;99.90;;;;;;4594814;19;20005;-72
2023/09/01 02:09:09;;;;;;;6.72;5.22;;;15.60;99.90;;;;;;4594550;19;19999;-72
2023/09/01 02:10:44;;;;;;;6.38;5.30;;;15.60;99.90;;;;;;4593197;19;20448;-72
2023/09/01 02:12:19;;;;;;;5.32;4.60;;;15.60;99.90;;;;;;4593448;19;20019;-72
2023/09/01 02:13:53;;;;;;;6.05;4.57;;;15.60;99.90;;;;;;4594272;19;20005;-72
2023/09/01 02:15:27;;;;;;;6.10;5.00;;;15.50;99.90;;;;;;4592975;19;20338;-72
2023/09/01 02:17:03;;;;;;;6.07;5.35;;;15.60;99.90;;;;;;4594402;19;20002;-72
2023/09/01 02:18:37;;;;;;;6.47;4.90;;;15.60;99.90;;;;;;4594343;19;20009;-72
2023/09/01 02:20:20;;;;;;;8.77;5.80;;;15.60;99.90;;;;;;4592905;19;20071;-72
2023/09/01 02:21:56;;;;;;;6.15;5.53;;;15.60;99.90;;;;;;4594130;19;20111;-72
2023/09/01 02:23:30;;;;;;;7.45;5.57;;;15.60;99.90;;;;;;4594170;19;20007;-72
2023/09/01 02:25:08;;;;;;;6.30;5.13;;;15.60;99.90;;;;;;4591893;19;20006;-72
2023/09/01 02:26:43;;;;;;;6.75;5.28;;;15.60;99.90;;;;;;4594164;19;20014;-72
2023/09/01 02:28:21;;;;;;;5.80;5.03;;;15.60;99.90;;;;;;4594152;19;20021;-72
2023/09/01 02:29:55;;;;;;;5.80;4.65;;;15.60;99.90;;;;;;4594064;19;20003;-72
2023/09/01 02:31:30;;;;;;;6.60;5.07;;;15.60;99.90;;;;;;4594042;19;20007;-72
2023/09/01 02:33:04;;;;;;;6.03;5.00;;;15.60;99.90;;;;;;4593949;19;20318;-72
2023/09/01 02:34:37;;;;;;;5.78;4.28;;;15.60;99.90;;;;;;4593686;19;20006;-72
2023/09/01 02:36:32;;;;;;;5.88;4.72;;;15.50;99.90;;;;;;4592842;19;19998;-72
2023/09/01 02:38:07;;;;;;;5.65;4.63;;;15.60;99.90;;;;;;4592900;19;20010;-72
2023/09/01 02:39:41;;;;;;;5.47;4.43;;;15.50;99.90;;;;;;4593526;19;20027;-72
2023/09/01 02:41:16;;;;;;;5.05;4.30;;;15.50;99.90;;;;;;4592745;19;20002;-72
2023/09/01 02:42:51;;;;;;;5.43;4.93;;;15.50;99.90;;;;;;4593536;19;20070;-72
2023/09/01 02:44:25;;;;;;;5.63;4.65;;;15.50;99.90;;;;;;4592348;19;20400;-72
2023/09/01 02:46:00;;;;;;;5.20;4.68;;;15.50;99.90;;;;;;4593630;19;20429;-72
2023/09/01 02:47:35;;;;;;;5.05;4.35;;;15.50;99.90;;;;;;4593693;19;20007;-72
2023/09/01 02:49:10;;;;;;;5.70;4.82;;;15.50;99.90;;;;;;4593864;19;20029;-72
2023/09/01 02:50:45;;;;;;;7.45;4.30;;;15.50;99.90;;;;;;4593705;19;20082;-72
2023/09/01 02:52:19;;;;;;;5.45;4.32;;;15.50;99.90;;;;;;4592221;19;20013;-72
2023/09/01 02:53:53;;;;;;;5.10;4.25;;;15.50;99.90;;;;;;4593465;19;19999;-72
2023/09/01 02:55:28;;;;;;;6.65;4.97;;;15.50;99.90;;;;;;4592569;19;20011;-72
2023/09/01 02:57:04;;;;;;;6.32;5.13;;;15.50;99.90;;;;;;4593550;19;20014;-72
2023/09/01 02:58:38;;;;;;;6.05;4.43;;;15.50;99.90;;;;;;4592354;19;20401;-72
2023/09/01 03:00:21;;;;;;;6.00;5.05;;;15.50;99.90;;;;;;4592168;19;20014;-72
2023/09/01 03:01:56;;;;;;;7.00;4.78;;;15.50;99.90;;;;;;4592396;19;20030;-72
2023/09/01 03:03:30;;;;;;;6.20;5.35;;;15.40;99.90;;;;;;4592078;19;20009;-72
2023/09/01 03:05:06;;;;;;;7.18;4.68;;;15.50;99.90;;;;;;4592610;19;20006;-72
2023/09/01 03:06:39;;;;;;;5.35;4.18;;;15.50;99.90;;;;;;4592264;19;20043;-72
2023/09/01 03:08:13;;;;;;;5.80;4.72;;;15.50;99.90;;;;;;4591900;19;20417;-72
2023/09/01 03:09:48;;;;;;;5.72;4.60;;;15.40;99.90;;;;;;4593364;19;20410;-72
2023/09/01 03:11:23;;;;;;;6.57;4.95;;;15.40;99.90;;;;;;4593243;19;20006;-72
2023/09/01 03:12:59;;;;;;;5.47;4.80;;;15.40;99.90;;;;;;4593157;19;20464;-72
2023/09/01 03:14:35;;;;;;;5.65;4.75;;;15.40;99.90;;;;;;4592524;19;20015;-72
2023/09/01 03:16:09;;;;;;;5.35;4.40;;;15.40;99.90;;;;;;4592431;19;20014;-72
2023/09/01 03:17:43;;;;;;;5.60;4.30;;;15.40;99.90;;;;;;4593085;19;20086;-72
2023/09/01 03:19:18;;;;;;;5.32;4.57;;;15.40;99.90;;;;;;4593114;19;20306;-72
2023/09/01 03:20:55;;;;;;;5.65;4.75;;;15.40;99.90;;;;;;4593031;19;20002;-72
2023/09/01 03:22:29;;;;;;;7.00;4.57;;;15.40;99.90;;;;;;4592996;19;20010;-72
2023/09/01 03:24:04;;;;;;;5.57;4.70;;;15.40;99.90;;;;;;4593341;19;20007;-72
2023/09/01 03:25:38;;;;;;;5.43;4.40;;;15.40;99.90;;;;;;4592893;19;20002;-72
2023/09/01 03:27:16;;;;;;;5.43;4.60;;;15.40;99.90;;;;;;4592822;19;20321;-72
2023/09/01 03:28:52;;;;;;;4.68;4.20;;;15.40;99.90;;;;;;4592931;19;20039;-72
2023/09/01 03:30:26;;;;;;;5.47;4.72;;;15.50;99.90;;;;;;4591793;19;20006;-71
2023/09/01 03:32:00;;;;;;;4.93;4.43;;;15.40;99.90;;;;;;4592680;19;20021;-71
2023/09/01 03:33:35;;;;;;;5.70;4.50;;;15.50;99.90;;;;;;4592752;19;19998;-72
2023/09/01 03:35:09;;;;;;;5.80;4.53;;;15.40;99.90;;;;;;4591801;19;20013;-72
2023/09/01 03:36:44;;;;;;;4.88;4.00;;;15.50;99.90;;;;;;4592722;19;20008;-72
2023/09/01 03:38:19;;;;;;;4.93;4.35;;;15.40;99.90;;;;;;4592691;19;20023;-72
2023/09/01 03:39:53;;;;;;;4.65;4.18;;;15.40;99.90;;;;;;4592950;19;20305;-73
2023/09/01 03:41:27;;;;;;;5.68;4.00;;;15.50;99.90;;;;;;4592559;19;20002;-73
2023/09/01 03:43:03;;;;;;;4.72;4.22;;;15.40;99.90;;;;;;4591262;19;19999;-73
2023/09/01 03:44:41;;;;;;;5.50;4.22;;;15.50;99.90;;;;;;4591131;19;20330;-73
2023/09/01 03:46:15;;;;;;;4.35;3.83;;;15.50;99.90;;;;;;4592522;19;20005;-73
2023/09/01 03:47:50;;;;;;;5.97;4.72;;;15.50;99.90;;;;;;4592440;19;20436;-73
2023/09/01 03:49:26;;;;;;;4.93;4.38;;;15.50;99.90;;;;;;4592749;19;19998;-73
2023/09/01 03:51:17;;;;;;;5.05;4.53;;;15.50;99.90;;;;;;4592501;19;20493;-73
2023/09/01 03:52:52;;;;;;;5.72;4.82;;;15.50;99.90;;;;;;4591183;19;20065;-72
2023/09/01 03:54:25;;;;;;;6.53;4.80;;;15.50;99.90;;;;;;4591979;19;20020;-73
2023/09/01 03:56:02;;;;;;;5.63;4.57;;;15.50;99.90;;;;;;4591966;19;20094;-72
2023/09/01 03:57:37;;;;;;;6.32;4.47;;;15.50;99.90;;;;;;4591314;19;20445;-72
2023/09/01 03:59:12;;;;;;;6.38;5.03;;;15.50;99.90;;;;;;4592059;19;20070;-73
2023/09/01 04:00:47;;;;;;;6.40;5.32;;;15.60;99.90;;;;;;4592461;19;19998;-72
2023/09/01 04:02:22;;;;;;;5.03;3.78;;;15.60;99.90;;;;;;4591029;19;20011;-73
2023/09/01 04:03:59;;;;;;;7.18;4.45;;;16.00;99.90;;;;;;4592288;19;20094;-72
2023/09/01 04:05:33;;;;;;;6.88;4.13;;;16.50;99.90;;;;;;4590094;19;20025;-72
2023/09/01 04:07:09;;;;;;;5.50;3.75;;;16.80;99.90;;;;;;4592131;19;20078;-72
2023/09/01 04:08:43;;;;;;;5.60;3.97;;;17.20;99.90;;;;;;4591136;19;19995;-72
2023/09/01 04:10:18;;;;;;;5.60;3.85;;;17.40;99.90;;;;;;4590960;19;20002;-72
2023/09/01 04:11:57;;;;;;;5.97;3.50;;;17.60;99.90;;;;;;4591858;19;20011;-72
2023/09/01 04:13:32;;;;;;;4.40;3.33;;;17.80;99.90;;;;;;4592064;19;20023;-72
2023/09/01 04:15:06;;;;;;;3.83;3.03;;;18.00;99.90;;;;;;4590956;19;20066;-72
2023/09/01 04:16:41;;;;;;;3.55;2.63;;;18.10;99.90;;;;;;4592346;19;20010;-72
2023/09/01 04:18:15;;;;;;;4.22;3.13;;;18.20;99.90;;;;;;4592013;19;20009;-72
2023/09/01 04:19:49;;;;;;;3.90;2.65;;;18.30;99.90;;;;;;4592237;19;20010;-72
2023/09/01 04:21:24;;;;;;;3.92;3.28;;;18.50;99.90;;;;;;4591932;19;20019;-73
2023/09/01 04:22:58;;;;;;;4.70;3.20;;;18.60;99.90;;;;;;4592140;19;20009;-74
2023/09/01 04:24:32;;;;;;;4.85;3.10;;;18.60;99.90;;;;;;4591452;19;20333;-73
2023/09/01 04:26:07;;;;;;;4.70;3.40;;;18.70;99.90;;;;;;4591237;19;20010;-74
2023/09/01 04:27:41;;;;;;;5.18;3.47;;;18.70;99.90;;;;;;4590771;19;20325;-73
2023/09/01 04:29:17;;;;;;;3.67;3.00;;;18.70;99.90;;;;;;4595510;19;20025;-73
2023/09/01 04:30:53;;;;;;;5.82;3.78;;;18.80;99.90;;;;;;4596624;19;20013;-73
2023/09/01 04:32:27;;;;;;;7.05;3.03;;;18.90;99.90;;;;;;4596516;19;20027;-73
2023/09/01 04:34:01;;;;;;;5.20;3.33;;;19.00;99.90;;;;;;4596476;19;20550;-73
2023/09/01 04:35:36;;;;;;;4.05;3.38;;;19.00;99.90;;;;;;4594531;19;20010;-73
2023/09/01 04:37:11;;;;;;;4.95;3.22;;;19.00;99.90;;;;;;4596352;19;20070;-73
2023/09/01 04:38:45;;;;;;;4.93;3.40;;;19.00;99.90;;;;;;4594913;19;20349;-72
2023/09/01 04:40:21;;;;;;;4.97;3.47;;;19.00;99.90;;;;;;4595000;19;20039;-73
2023/09/01 04:42:22;;;;;;;6.10;3.65;;;19.10;99.90;;;;;;4595783;19;20033;-73
2023/09/01 04:44:22;;;;;;;5.22;3.17;;;19.00;99.90;;;;;;4394707;19;20018;-73
2023/09/01 04:46:17;;;;;;;5.43;3.58;;;19.10;99.90;;;;;;4593333;19;20034;-73
2023/09/01 04:48:37;;;;;;;4.47;3.30;;;19.10;99.90;;;;;;4585954;19;20034;-73
2023/09/01 04:50:29;;;;;;;6.15;3.72;;;19.20;99.90;;;;;;4587822;19;20002;-73
2023/09/01 04:52:04;;;;;;;4.72;3.33;;;19.20;99.90;;;;;;4591737;19;20010;-73
2023/09/01 04:53:38;;;;;;;4.85;3.22;;;19.20;99.90;;;;;;4593199;19;20010;-73
2023/09/01 04:55:13;;;;;;;4.80;3.20;;;19.20;99.90;;;;;;4592521;19;20066;-73
2023/09/01 04:56:48;;;;;;;4.65;3.30;;;19.20;99.90;;;;;;4593771;19;19998;-73
2023/09/01 04:58:34;;;;;;;4.63;3.13;;;19.10;99.90;;;;;;4592897;19;20026;-73
2023/09/01 05:00:28;;;;;;;3.72;2.70;;;19.10;99.90;;;;;;4594677;19;20035;-73
2023/09/01 05:02:11;;;;;;;5.13;3.47;;;19.20;99.90;;;;;;4593037;19;20040;-73
2023/09/01 05:03:45;;;;;;;;;;;19.20;99.90;;;;;;4592261;19;19998;-73
2023/09/01 05:05:21;;;;;;;5.70;3.40;;;19.20;99.90;;;;;;4589635;19;20008;-73
2023/09/01 05:06:55;;;;;;;4.18;3.13;;;19.20;99.90;;;;;;4592706;19;20009;-74
2023/09/01 05:08:29;;;;;;;4.80;3.33;;;19.20;99.90;;;;;;4594574;19;20010;-74
2023/09/01 05:10:04;;;;;;;6.85;3.88;;;19.20;99.90;;;;;;4595829;19;20003;-74
2023/09/01 05:11:38;;;;;;;3.92;3.08;;;19.20;99.90;;;;;;4595633;19;20020;-74
2023/09/01 05:13:12;;;;;;;5.47;3.13;;;19.30;99.90;;;;;;4595657;19;20086;-73
2023/09/01 05:14:47;;;;;;;4.60;3.28;;;19.30;99.90;;;;;;4594498;19;20022;-74
2023/09/01 05:16:22;;;;;;;4.82;2.80;;;19.30;99.90;;;;;;4593145;19;20002;-73
2023/09/01 05:17:56;;;;;;;4.10;2.95;;;19.20;99.90;;;;;;4595531;19;20024;-73
2023/09/01 05:19:32;;;;;;;4.47;3.40;;;19.30;99.90;;;;;;4595485;19;20006;-73
2023/09/01 05:21:06;;;;;;;4.60;3.35;;;19.20;99.90;;;;;;4595440;19;20333;-74
2023/09/01 05:22:41;;;;;;;3.97;3.28;;;19.30;99.90;;;;;;4594386;19;20049;-74
2023/09/01 05:24:16;;;;;;;6.20;3.58;;;19.30;99.90;;;;;;4595174;19;20279;-74
2023/09/01 05:25:53;;;;;;;5.40;3.47;;;19.30;99.90;;;;;;4595413;19;20023;-74
2023/09/01 05:27:27;;;;;;;5.10;3.35;;;19.30;99.90;;;;;;4595619;19;20032;-74
2023/09/01 05:29:03;;;;;;;5.68;3.55;;;19.30;99.90;;;;;;4593916;19;20082;-74
2023/09/01 05:30:37;;;;;;;4.80;3.08;;;19.30;99.90;;;;;;4594970;19;20006;-74
2023/09/01 05:32:13;;;;;;;6.40;3.30;;;19.30;99.90;;;;;;4595196;19;20002;-74
2023/09/01 05:33:48;;;;;;;6.20;3.63;;;19.30;99.90;;;;;;4595752;19;20020;-74
2023/09/01 05:35:22;;;;;;;6.53;3.50;;;19.30;99.90;;;;;;4593619;19;20033;-74
2023/09/01 05:36:57;;;;;;;4.78;3.92;;;19.30;99.90;;;;;;4595147;19;19999;-74
2023/09/01 05:38:32;;;;;;;5.90;3.75;;;19.30;99.90;;;;;;4595370;19;20006;-74
2023/09/01 05:40:08;;;;;;;5.30;3.33;;;19.30;99.90;;;;;;4592443;19;20080;-74
2023/09/01 05:41:42;;;;;;;6.80;3.97;;;19.30;99.90;;;;;;4594907;19;20005;-74
2023/09/01 05:43:17;;;;;;;5.63;3.50;;;19.30;99.90;;;;;;4593540;19;20002;-74
2023/09/01 05:44:51;;;;;;;7.40;4.43;;;19.30;99.90;;;;;;4593912;19;20412;-73
2023/09/01 05:46:26;;;;;;;4.68;3.25;;;19.30;99.90;;;;;;4595071;19;20002;-74
2023/09/01 05:48:01;;;;;;;5.43;3.65;;;19.20;99.90;;;;;;4595254;19;20462;-74
2023/09/01 05:49:35;;;;;;;4.88;3.65;;;19.30;99.90;;;;;;4594867;19;19999;-74
2023/09/01 05:51:09;;;;;;;7.03;3.60;;;19.30;99.90;;;;;;4594876;19;20025;-74
2023/09/01 05:52:45;;;;;;;5.78;3.22;;;19.30;99.90;;;;;;4595243;19;20433;-74
2023/09/01 05:54:21;;;;;;;5.18;3.42;;;19.30;99.90;;;;;;4594701;19;20425;-74
2023/09/01 05:55:56;;;;;;;4.72;2.83;;;19.30;99.90;;;;;;4594334;19;20025;-73
2023/09/01 05:57:32;;;;;;;4.93;2.90;;;19.30;99.90;;;;;;4594774;19;20013;-73
2023/09/01 05:59:05;;;;;;;4.60;2.50;;;19.40;99.90;;;;;;4594666;19;20011;-73
2023/09/01 06:00:40;;;;;;;5.47;3.10;;;19.50;99.90;;;;;;4594941;19;20299;-73
2023/09/01 06:02:19;;;;;;;5.30;3.00;;;19.60;99.90;;;;;;4594735;19;20429;-73
2023/09/01 06:03:54;;;;;;;4.53;2.97;;;19.70;99.90;;;;;;4594887;19;20070;-73
2023/09/01 06:05:28;;;;;;;4.63;3.00;;;19.80;99.90;;;;;;4591871;19;20007;-74
2023/09/01 06:07:04;;;;;;;5.43;2.90;;;19.80;99.90;;;;;;4593500;19;20003;-73
2023/09/01 06:08:38;;;;;;;3.88;2.53;;;19.90;99.90;;;;;;4593283;19;20006;-73
2023/09/01 06:10:12;;;;;;;4.60;2.78;;;19.90;99.90;;;;;;4593205;19;20002;-73
2023/09/01 06:11:47;;;;;;;3.83;2.50;;;20.00;99.90;;;;;;4593182;19;19999;-73
2023/09/01 06:13:21;;;;;;;4.18;2.72;;;20.10;99.90;;;;;;4594119;19;20002;-73
2023/09/01 06:14:57;;;;;;;3.80;2.40;;;20.10;99.90;;;;;;4593312;19;20015;-73
2023/09/01 06:16:33;;;;;;;5.43;2.70;;;20.00;99.90;;;;;;4593182;19;20013;-73
2023/09/01 06:18:07;;;;;;;4.63;2.83;;;20.10;99.90;;;;;;4594759;19;20066;-73
2023/09/01 06:19:41;;;;;;;5.07;2.42;;;20.10;99.90;;;;;;4594579;19;20006;-73
2023/09/01 06:21:17;;;;;;;4.28;2.60;;;20.10;99.90;;;;;;4594398;19;20324;-75
2023/09/01 06:22:53;;;;;;;2.72;2.00;;;20.10;99.90;;;;;;4592822;19;20011;-73
2023/09/01 06:24:27;;;;;;;6.78;2.92;;;20.00;99.90;;;;;;4593595;19;20310;-74
2023/09/01 06:26:03;;;;;;;4.55;2.55;;;19.90;99.90;;;;;;4594518;19;20006;-73
2023/09/01 06:27:39;;;;;;;4.75;2.90;;;19.90;99.90;;;;;;4594251;19;20006;-73
2023/09/01 06:29:13;;;;;;;4.22;2.45;;;19.90;99.90;;;;;;4594353;19;20361;-73
2023/09/01 06:30:49;;;;;;;3.45;2.25;;;19.80;99.90;;;;;;4592854;19;20015;-74
2023/09/01 06:32:24;;;;;;;4.65;2.25;;;19.70;99.90;;;;;;4593745;19;20022;-74
2023/09/01 06:33:58;;;;;;;3.33;2.13;;;19.80;99.90;;;;;;4593027;19;20019;-74
2023/09/01 06:35:33;;;;;;;4.78;2.90;;;19.70;99.90;;;;;;4592731;19;20024;-74
2023/09/01 06:37:07;;;;;;;4.88;2.38;;;19.80;99.90;;;;;;4594324;19;20070;-73
2023/09/01 06:38:42;;;;;;;4.20;2.92;;;19.80;99.90;;;;;;4592572;19;20433;-73
2023/09/01 06:40:19;;;;;;;4.22;2.63;;;19.80;99.90;;;;;;4593993;19;20017;-74
2023/09/01 06:41:53;;;;;;;3.97;2.17;;;19.80;99.90;;;;;;4594184;19;20314;-73
2023/09/01 06:43:27;;;;;;;3.58;2.13;;;19.80;99.90;;;;;;4594109;19;20013;-73
2023/09/01 06:45:03;;;;;;;4.32;2.40;;;19.80;99.90;;;;;;4592998;19;20010;-73
2023/09/01 06:46:38;;;;;;;5.30;2.38;;;19.80;99.90;;;;;;4592490;19;20038;-72
2023/09/01 06:48:11;;;;;;;3.67;2.83;;;19.80;99.90;;;;;;4593498;19;20009;-72
2023/09/01 06:49:48;;;;;;;3.72;2.63;;;19.90;99.90;;;;;;4594085;19;20435;-72
2023/09/01 06:51:21;;;;;;;3.90;2.30;;;20.00;99.90;;;;;;4593199;19;20007;-73
2023/09/01 06:52:56;;;;;;;3.92;2.60;;;20.10;99.90;;;;;;4593949;19;19998;-73
2023/09/01 06:54:31;;;;;;;4.85;2.45;;;20.00;99.90;;;;;;4593505;19;20318;-73
2023/09/01 06:56:05;;;;;;;4.72;2.13;;;19.90;99.90;;;;;;4593227;19;19998;-73
2023/09/01 06:57:41;;;;;;;4.93;2.47;;;19.90;99.90;;;;;;4593460;19;20362;-73
2023/09/01 06:59:16;;;;;;;5.70;2.03;;;19.90;99.90;;;;;;4593646;19;20012;-73
2023/09/01 07:00:53;;;;;;;4.05;2.42;;;19.90;99.90;;;;;;4593502;19;20386;-73
2023/09/01 07:02:27;;;;;;;3.95;2.55;;;19.90;99.90;;;;;;4593404;19;20050;-73
2023/09/01 07:04:04;;;;;;;4.25;2.45;;;19.80;99.90;;;;;;4593682;19;20468;-73
2023/09/01 07:05:39;;;;;;;4.45;2.30;;;19.80;99.90;;;;;;4592053;19;20006;-73
2023/09/01 07:07:13;;;;;;;4.28;2.40;;;19.80;99.90;;;;;;4593211;19;20002;-73
2023/09/01 07:08:49;;;;;;;5.15;2.15;;;19.70;99.90;;;;;;4593392;19;20007;-73
2023/09/01 07:10:23;;;;;;;2.80;1.73;;;19.70;99.90;;;;;;4593194;19;19999;-73
2023/09/01 07:11:58;;;;;;;5.43;2.20;;;19.60;99.90;;;;;;4593432;19;20003;-73
2023/09/01 07:13:33;;;;;;;4.60;2.33;;;19.70;99.90;;;;;;4593288;19;20006;-73
2023/09/01 07:15:08;;;;;;;5.97;3.40;;;19.70;99.90;;;;;;4590590;19;20078;-71
2023/09/01 07:16:41;;;;;;;4.80;3.25;;;19.70;99.90;;;;;;4591922;19;20003;-73
2023/09/01 07:18:17;;;;;;;5.05;3.42;;;19.90;99.90;;;;;;4593156;19;20007;-73
2023/09/01 07:19:51;;;;;;;4.35;2.40;;;20.00;99.90;;;;;;4593057;19;20014;-73
2023/09/01 07:21:26;;;;;;;3.65;2.33;;;20.10;99.90;;;;;;4591726;19;20516;-73
2023/09/01 07:23:01;;;;;;;4.60;2.35;;;20.20;99.90;;;;;;4592624;19;20017;-72
2023/09/01 07:24:35;;;;;;;4.20;1.80;;;20.30;99.90;;;;;;4592695;19;20350;-74
2023/09/01 07:26:09;;;;;;;3.55;1.80;;;20.40;99.90;;;;;;4593347;19;20002;-74
2023/09/01 07:27:45;;;;;;;2.83;1.50;;;20.40;99.90;;;;;;4593169;19;20019;-75
2023/09/01 07:29:19;;;;;;;3.53;1.60;;;20.40;99.90;;;;;;4591875;19;20021;-76
2023/09/01 07:30:53;;;;;;;4.18;1.58;;;20.40;99.90;;;;;;4592878;19;19999;-74
2023/09/01 07:32:30;;;;;;;2.50;1.30;;;20.40;99.90;;;;;;4593361;19;20464;-73
2023/09/01 07:34:04;;;;;;;2.70;1.20;;;20.40;99.90;;;;;;4591558;19;20081;-75
2023/09/01 07:35:38;;;;;;;2.88;1.63;;;20.40;99.90;;;;;;4592316;19;20023;-75
2023/09/01 07:37:13;;;;;;;2.58;1.40;;;20.40;99.90;;;;;;4591901;19;20010;-74
2023/09/01 07:38:47;;;;;;;3.15;1.80;;;20.40;99.90;;;;;;4591661;19;20432;-75
2023/09/01 07:40:21;;;;;;;3.83;2.20;;;20.40;99.90;;;;;;4592679;19;20066;-73
2023/09/01 07:41:56;;;;;;;3.75;1.80;;;20.20;99.90;;;;;;4592976;19;20003;-74
2023/09/01 07:43:31;;;;;;;3.45;1.80;;;20.20;99.90;;;;;;4592649;19;19998;-74
2023/09/01 07:45:05;;;;;;;4.65;2.10;;;20.10;99.90;;;;;;4590538;19;20297;-75
2023/09/01 07:46:41;;;;;;;4.65;2.10;;;20.10;99.90;;;;;;4592065;19;20575;-73
2023/09/01 07:48:15;;;;;;;3.90;1.92;;;20.00;99.90;;;;;;4592376;19;20034;-73
2023/09/01 07:49:48;;;;;;;2.97;1.58;;;19.90;99.90;;;;;;4592446;19;20006;-73
2023/09/01 07:51:23;;;;;;;5.80;1.60;;;19.90;99.90;;;;;;4592569;19;20020;-73
2023/09/01 07:52:58;;;;;;;4.15;1.50;;;19.80;99.90;;;;;;4592674;19;20061;-72
2023/09/01 07:54:33;;;;;;;3.17;1.60;;;19.80;99.90;;;;;;4590704;19;20010;-72
2023/09/01 07:56:12;;;;;;;3.63;1.58;;;19.80;99.90;;;;;;4591574;19;20003;-73
2023/09/01 07:57:46;;;;;;;2.25;1.42;;;19.80;99.90;;;;;;4591082;19;20006;-73
2023/09/01 07:59:23;;;;;;;4.63;1.65;;;19.80;99.90;;;;;;4592074;19;20024;-73
2023/09/01 08:00:59;;;;;;;3.10;1.80;;;19.90;99.90;;;;;;4592640;19;20013;-73
2023/09/01 08:02:34;;;;;;;2.58;1.45;;;19.80;99.90;;;;;;4591572;19;20002;-73
2023/09/01 08:04:09;;;;;;;4.97;1.95;;;19.80;99.90;;;;;;4590009;19;20092;-73
2023/09/01 08:05:45;;;;;;;3.20;1.60;;;19.80;99.90;;;;;;4592015;19;20425;-73
2023/09/01 08:07:20;;;;;;;3.00;1.70;;;19.80;99.90;;;;;;4592118;19;20011;-73
2023/09/01 08:08:55;;;;;;;5.22;1.50;;;19.80;99.90;;;;;;4590930;19;20318;-73
2023/09/01 08:10:31;;;;;;;3.03;1.35;;;19.90;99.90;;;;;;4591861;19;20006;-73
2023/09/01 08:12:07;;;;;;;3.97;1.50;;;20.00;99.90;;;;;;4592124;19;20058;-72
2023/09/01 08:13:40;;;;;;;5.70;1.70;;;20.00;99.90;;;;;;4592429;19;20007;-73
2023/09/01 08:15:15;;;;;;;3.92;2.40;;;20.00;99.90;;;;;;4591366;19;20014;-73
2023/09/01 08:16:49;;;;;;;4.25;1.63;;;20.10;99.90;;;;;;4590913;19;19999;-73
2023/09/01 08:18:27;;;;;;;3.95;1.50;;;20.10;99.90;;;;;;4591401;19;20369;-72
2023/09/01 08:20:04;;;;;;;4.50;1.35;;;20.10;99.90;;;;;;4592178;19;20089;-73
2023/09/01 08:21:40;;;;;;;2.60;1.40;;;20.10;99.90;;;;;;4593529;19;20017;-72
2023/09/01 08:23:15;;;;;;;3.28;1.85;;;20.10;99.90;;;;;;4591754;19;20002;-72
2023/09/01 08:24:58;;;;;;;2.70;1.40;;;20.10;99.90;;;;;;4589632;19;20011;-73
2023/09/01 08:26:33;;;;;;;3.67;1.38;;;20.10;99.90;;;;;;4592533;19;20018;-72
2023/09/01 08:28:07;;;;;;;5.03;1.90;;;20.10;99.90;;;;;;4591485;19;20058;-72
2023/09/01 08:29:43;;;;;;;3.78;1.60;;;20.10;99.90;;;;;;4592053;19;20015;-73
2023/09/01 08:31:20;;;;;;;3.28;1.30;;;20.10;99.90;;;;;;4592252;19;20022;-72
2023/09/01 08:32:53;;;;;;;2.47;1.40;;;20.10;99.90;;;;;;4594669;19;20014;-72
2023/09/01 08:34:29;;;;;;;2.35;1.20;;;20.10;99.90;;;;;;4593679;19;20025;-72
2023/09/01 08:36:04;;;;;;;3.63;1.30;;;20.10;99.90;;;;;;4594043;19;20438;-73